Time;durP1;ratioP1;P1;durP2;ratioP2;P2;SDS_P1;SDS_P2;PMS_P1;PMS_P2;Temp;Humidity;BMP_temperature;BMP_pressure;BME280_temperature;BME280_humidity;BME280_pressure;Samples;Min_cycle;Max_cycle;Signal;HPM_P1;HPM_P2
2024/03/14 00:04:49;;;;;;;28.48;21.65;;;;;;;-146.18;100.00;67994.34;10447426;27;20047;-75
2024/03/14 00:09:45;;;;;;;31.17;22.15;;;;;;;-146.18;100.00;67994.34;10446085;27;20096;-74
2024/03/14 00:14:50;;;;;;;28.90;21.17;;;;;;;-146.18;100.00;67994.34;10450974;27;20050;-76
2024/03/14 00:19:46;;;;;;;33.10;22.10;;;;;;;-146.18;100.00;67994.34;10455590;27;20047;-75
2024/03/14 00:24:43;;;;;;;33.03;21.58;;;;;;;-146.18;100.00;67994.34;10446531;27;20043;-77
2024/03/14 00:29:41;;;;;;;31.02;22.52;;;;;;;-146.18;100.00;67994.34;10445413;27;20665;-75
2024/03/14 00:34:38;;;;;;;31.67;22.73;;;;;;;-146.18;100.00;67994.34;10455125;27;20046;-76
2024/03/14 00:39:35;;;;;;;33.25;21.48;;;;;;;-146.18;100.00;67994.34;10453188;27;20047;-75
2024/03/14 00:44:32;;;;;;;34.72;23.02;;;;;;;-146.18;100.00;67994.34;10448447;27;20414;-74
2024/03/14 00:49:29;;;;;;;33.65;22.27;;;;;;;-146.18;100.00;67994.34;10454406;27;20055;-75
2024/03/14 00:54:25;;;;;;;37.20;24.27;;;;;;;-146.18;100.00;67994.34;10450206;27;20043;-75
2024/03/14 00:59:22;;;;;;;38.15;23.77;;;;;;;-146.18;100.00;67994.34;10458091;27;20446;-75
2024/03/14 01:04:19;;;;;;;39.03;24.98;;;;;;;-146.18;100.00;67994.34;10464699;27;20046;-76
2024/03/14 01:09:16;;;;;;;40.25;24.83;;;;;;;-146.18;100.00;67994.34;10443812;27;20038;-75
2024/03/14 01:14:12;;;;;;;39.78;25.20;;;;;;;-146.18;100.00;67994.34;10446383;27;20038;-74
2024/03/14 01:19:11;;;;;;;35.50;23.45;;;;;;;-146.18;100.00;67994.34;10443979;27;20047;-75
2024/03/14 01:24:07;;;;;;;37.20;24.77;;;;;;;-146.18;100.00;67994.34;10443885;27;20071;-75
2024/03/14 01:29:04;;;;;;;39.50;24.70;;;;;;;-146.18;100.00;67994.34;10448852;27;20054;-76
2024/03/14 01:34:01;;;;;;;36.03;24.33;;;;;;;-146.18;100.00;67994.34;10445288;27;20031;-76
2024/03/14 01:38:58;;;;;;;42.88;25.92;;;;;;;-146.18;100.00;67994.34;10450786;27;20043;-76
2024/03/14 01:43:56;;;;;;;38.35;26.15;;;;;;;-146.18;100.00;67994.34;10445217;27;20116;-75
2024/03/14 01:48:54;;;;;;;40.58;25.38;;;;;;;-146.18;100.00;67994.34;10437652;27;20039;-75
2024/03/14 01:53:52;;;;;;;45.40;27.50;;;;;;;-146.18;100.00;67994.34;10457783;27;20039;-75
2024/03/14 01:58:51;;;;;;;37.55;25.45;;;;;;;-146.18;100.00;67994.34;10455751;27;20092;-75
2024/03/14 02:03:56;;;;;;;39.95;24.67;;;;;;;-146.18;100.00;67994.34;10451838;27;20054;-75
2024/03/14 02:08:52;;;;;;;41.25;25.05;;;;;;;-146.18;100.00;67994.34;10453368;27;20511;-75
2024/03/14 02:13:49;;;;;;;44.33;25.15;;;;;;;-146.18;100.00;67994.34;10458647;27;20047;-74
2024/03/14 02:18:45;;;;;;;38.15;25.27;;;;;;;-146.18;100.00;67994.34;10449732;27;20514;-76
2024/03/14 02:23:42;;;;;;;36.03;24.52;;;;;;;-146.18;100.00;67994.34;10451612;27;20051;-77
2024/03/14 02:28:38;;;;;;;43.05;26.23;;;;;;;-146.18;100.00;67994.34;10453835;27;20051;-76
2024/03/14 02:33:35;;;;;;;33.47;23.23;;;;;;;-146.18;100.00;67994.34;10456581;27;20115;-77
2024/03/14 02:38:33;;;;;;;34.88;23.73;;;;;;;-146.18;100.00;67994.34;10453628;27;20049;-78
2024/03/14 02:43:30;;;;;;;32.00;22.20;;;;;;;-146.18;100.00;67994.34;10441104;27;20038;-76
2024/03/14 02:48:26;;;;;;;35.70;24.02;;;;;;;-146.18;100.00;67994.34;10449301;27;20548;-77
2024/03/14 02:53:23;;;;;;;32.70;22.92;;;;;;;-146.18;100.00;67994.34;10451886;27;20066;-74
2024/03/14 02:58:21;;;;;;;33.58;22.45;;;;;;;-146.18;100.00;67994.34;10471431;27;20049;-75
2024/03/14 03:03:17;;;;;;;30.67;23.30;;;;;;;-146.18;100.00;67994.34;10447739;27;20039;-75
2024/03/14 03:08:15;;;;;;;32.83;23.30;;;;;;;-146.18;100.00;67994.34;10449625;27;20417;-75
2024/03/14 03:13:12;;;;;;;32.83;22.10;;;;;;;-146.18;100.00;67994.34;10454699;27;20042;-75
2024/03/14 03:18:08;;;;;;;34.58;22.35;;;;;;;-146.18;100.00;67994.34;10452829;27;20067;-75
2024/03/14 03:23:08;;;;;;;28.70;21.10;;;;;;;-146.18;100.00;67994.34;10447336;27;20098;-76
2024/03/14 03:28:13;;;;;;;27.92;20.98;;;;;;;-146.18;100.00;67994.34;10457054;27;20038;-76
2024/03/14 03:33:13;;;;;;;30.65;19.95;;;;;;;-146.18;100.00;67994.34;10455171;27;20563;-76
2024/03/14 03:38:09;;;;;;;27.45;20.25;;;;;;;-146.18;100.00;67994.34;10473236;27;20046;-75
2024/03/14 03:43:09;;;;;;;31.70;20.50;;;;;;;-146.18;100.00;67994.34;10459818;27;20034;-76
2024/03/14 03:48:06;;;;;;;25.83;20.55;;;;;;;-146.18;100.00;67994.34;10441704;27;20059;-75
2024/03/14 03:53:02;;;;;;;25.25;20.75;;;;;;;-146.18;100.00;67994.34;10466097;27;20458;-76
2024/03/14 03:57:59;;;;;;;24.08;19.77;;;;;;;-146.18;100.00;67994.34;10461880;27;20043;-75
2024/03/14 04:02:56;;;;;;;24.20;19.98;;;;;;;-146.18;100.00;67994.34;10448538;27;20043;-75
2024/03/14 04:07:53;;;;;;;26.88;20.92;;;;;;;-146.18;100.00;67994.34;10453022;27;20091;-75
2024/03/14 04:12:51;;;;;;;23.88;19.77;;;;;;;-146.18;100.00;67994.34;10456199;27;20047;-75
2024/03/14 04:17:48;;;;;;;28.27;22.02;;;;;;;-146.18;100.00;67994.34;10463786;27;20049;-76
2024/03/14 04:22:45;;;;;;;24.75;19.73;;;;;;;-146.18;100.00;67994.34;10465088;27;20070;-75
2024/03/14 04:27:42;;;;;;;26.88;20.33;;;;;;;-146.18;100.00;67994.34;10467512;27;20050;-75
2024/03/14 04:32:38;;;;;;;28.05;19.73;;;;;;;-146.18;100.00;67994.34;10451671;27;20518;-75
2024/03/14 04:37:36;;;;;;;25.60;20.08;;;;;;;-146.18;100.00;67994.34;10457929;27;20054;-76
2024/03/14 04:42:32;;;;;;;24.08;20.45;;;;;;;-146.18;100.00;67994.34;10461934;27;20038;-75
2024/03/14 04:47:29;;;;;;;25.75;19.98;;;;;;;-146.18;100.00;67994.34;10452328;27;20524;-75
2024/03/14 04:52:27;;;;;;;24.88;19.65;;;;;;;-146.18;100.00;67994.34;10464353;27;20065;-75
2024/03/14 04:57:24;;;;;;;24.17;19.88;;;;;;;-146.18;100.00;67994.34;10452305;27;20043;-75
2024/03/14 05:02:20;;;;;;;27.83;21.38;;;;;;;-146.18;100.00;67994.34;10451947;27;20712;-76
2024/03/14 05:07:18;;;;;;;27.90;19.98;;;;;;;-146.18;100.00;67994.34;10457929;27;20087;-75
2024/03/14 05:12:15;;;;;;;25.10;20.23;;;;;;;-146.18;100.00;67994.34;10455238;27;20042;-76
2024/03/14 05:17:12;;;;;;;24.02;19.23;;;;;;;-146.18;100.00;67994.34;10464604;27;20181;-74
2024/03/14 05:22:08;;;;;;;23.42;19.30;;;;;;;-146.18;100.00;67994.34;10446025;27;20406;-75
2024/03/14 05:27:05;;;;;;;22.83;19.70;;;;;;;-146.18;100.00;67994.34;10455790;27;20050;-75
2024/03/14 05:32:20;;;;;;;22.05;19.45;;;;;;;9.87;100.00;101204.16;10331793;27;20572;-76
2024/03/14 05:37:17;;;;;;;24.65;19.05;;;;;;;9.75;100.00;101211.19;10265895;28;20065;-76
2024/03/14 05:42:13;;;;;;;24.05;19.02;;;;;;;9.79;100.00;101223.94;10263474;28;20049;-76
2024/03/14 05:47:10;;;;;;;23.95;20.25;;;;;;;9.73;100.00;101225.16;10260295;28;20045;-76
2024/03/14 05:52:06;;;;;;;25.90;20.42;;;;;;;9.65;100.00;101234.03;10263285;28;20110;-76
2024/03/14 05:57:03;;;;;;;26.88;21.20;;;;;;;9.62;100.00;101234.63;10250473;28;20045;-78
2024/03/14 06:01:59;;;;;;;27.58;21.80;;;;;;;9.61;100.00;101235.75;10255630;28;20051;-78
2024/03/14 06:06:56;;;;;;;27.13;21.98;;;;;;;9.60;100.00;101242.31;10263374;28;20053;-78
2024/03/14 06:11:52;;;;;;;29.20;22.00;;;;;;;9.59;100.00;101236.03;10269567;28;20045;-78
2024/03/14 06:16:49;;;;;;;29.48;21.30;;;;;;;9.56;100.00;101236.66;10253248;28;20055;-78
2024/03/14 06:21:47;;;;;;;27.60;22.10;;;;;;;9.54;100.00;101241.59;10259990;28;20455;-79
2024/03/14 06:26:45;;;;;;;31.42;21.80;;;;;;;9.52;100.00;101240.28;10250311;28;20041;-77
2024/03/14 06:31:42;;;;;;;30.88;22.73;;;;;;;9.47;100.00;101244.69;10247640;28;20048;-77
2024/03/14 06:36:38;;;;;;;28.10;22.95;;;;;;;9.50;100.00;101243.28;10266642;28;20049;-76
2024/03/14 06:41:36;;;;;;;30.40;22.85;;;;;;;9.57;100.00;101237.44;10236397;28;20054;-76
2024/03/14 06:46:32;;;;;;;27.00;21.85;;;;;;;9.64;100.00;101238.69;10214790;28;20049;-77
2024/03/14 06:51:29;;;;;;;29.98;22.48;;;;;;;9.77;100.00;101230.81;10226240;28;20046;-77
2024/03/14 06:56:26;;;;;;;30.08;23.00;;;;;;;9.88;100.00;101222.16;10244044;28;20452;-77
2024/03/14 07:01:23;;;;;;;28.20;21.30;;;;;;;9.98;100.00;101220.34;10236691;28;20044;-77
2024/03/14 07:06:23;;;;;;;26.55;20.77;;;;;;;10.01;100.00;101230.69;10234057;28;20045;-75
2024/03/14 07:11:20;;;;;;;27.15;20.92;;;;;;;10.07;100.00;101224.00;10234616;28;20049;-78
2024/03/14 07:16:19;;;;;;;29.05;21.67;;;;;;;9.99;100.00;101230.16;10230477;28;20051;-77
2024/03/14 07:21:18;;;;;;;27.25;21.52;;;;;;;9.79;100.00;101229.41;10225610;28;20111;-79
2024/03/14 07:26:22;;;;;;;27.45;21.45;;;;;;;9.69;100.00;101235.06;10230331;28;20055;-76
2024/03/14 07:31:19;;;;;;;23.27;20.00;;;;;;;9.67;100.00;101231.81;10228589;28;20048;-76
2024/03/14 07:36:15;;;;;;;27.30;20.40;;;;;;;9.75;100.00;101239.34;10226957;28;20049;-76
2024/03/14 07:41:21;;;;;;;23.52;19.30;;;;;;;9.85;100.00;101239.16;10225450;28;20045;-76
2024/03/14 07:46:18;;;;;;;23.40;18.85;;;;;;;9.95;100.00;101238.16;10229588;28;20413;-76
2024/03/14 07:51:16;;;;;;;24.85;20.35;;;;;;;10.14;100.00;101240.81;10229257;28;20588;-78
2024/03/14 07:56:13;;;;;;;22.88;18.17;;;;;;;10.38;100.00;101237.94;10233726;28;20041;-77
2024/03/14 08:01:15;;;;;;;25.13;19.95;;;;;;;10.61;100.00;101233.38;10236479;28;20046;-77
2024/03/14 08:06:12;;;;;;;21.23;17.60;;;;;;;10.72;100.00;101234.78;10222071;28;20168;-78
2024/03/14 08:11:11;;;;;;;22.52;17.80;;;;;;;10.89;100.00;101227.84;10221724;28;20053;-77
2024/03/14 08:16:11;;;;;;;22.50;17.77;;;;;;;10.87;100.00;101228.16;10221187;28;20041;-77
2024/03/14 08:21:12;;;;;;;20.88;17.20;;;;;;;10.95;100.00;101221.97;10224558;28;20069;-76
2024/03/14 08:26:10;;;;;;;22.50;17.57;;;;;;;11.15;100.00;101220.66;10233995;28;20075;-77
2024/03/14 08:31:17;;;;;;;19.50;15.75;;;;;;;11.33;100.00;101215.34;10228081;28;20049;-77
2024/03/14 08:36:16;;;;;;;21.85;17.60;;;;;;;11.57;100.00;101220.50;10220778;28;20045;-76
2024/03/14 08:41:14;;;;;;;20.08;16.08;;;;;;;11.61;100.00;101209.75;10230865;28;20120;-76
2024/03/14 08:46:12;;;;;;;18.88;16.25;;;;;;;11.68;100.00;101205.44;10228520;28;20045;-78
2024/03/14 08:51:09;;;;;;;19.05;15.60;;;;;;;11.61;100.00;101198.78;10222744;28;20045;-77
2024/03/14 08:56:07;;;;;;;18.48;15.70;;;;;;;11.55;100.00;101207.09;10226317;28;20056;-78
2024/03/14 09:01:05;;;;;;;17.90;16.10;;;;;;;11.67;100.00;101212.00;10222161;28;20033;-77
2024/03/14 09:06:01;;;;;;;19.20;16.45;;;;;;;11.86;100.00;101198.13;10210222;28;20057;-77
2024/03/14 09:10:58;;;;;;;18.48;14.70;;;;;;;11.91;100.00;101198.00;10213882;28;20041;-76
2024/03/14 09:15:55;;;;;;;16.73;15.02;;;;;;;12.06;100.00;101198.72;10224500;28;20071;-76
2024/03/14 09:20:55;;;;;;;17.88;14.68;;;;;;;11.97;100.00;101196.75;10228820;28;20523;-76
2024/03/14 09:25:52;;;;;;;16.55;14.65;;;;;;;11.99;100.00;101202.72;10220595;28;20088;-76
2024/03/14 09:30:57;;;;;;;16.20;14.68;;;;;;;12.09;100.00;101193.44;10228385;28;20046;-75
2024/03/14 09:35:54;;;;;;;17.33;13.85;;;;;;;12.31;100.00;101192.53;10227165;28;20049;-76
2024/03/14 09:40:50;;;;;;;19.10;13.32;;;;;;;12.51;100.00;101198.53;10228954;28;20663;-76
2024/03/14 09:45:55;;;;;;;14.13;12.75;;;;;;;13.14;100.00;101188.13;10225601;28;20041;-76
2024/03/14 09:50:56;;;;;;;16.48;13.25;;;;;;;13.59;100.00;101183.06;10225994;28;20519;-77
2024/03/14 09:55:54;;;;;;;16.08;13.10;;;;;;;13.68;100.00;101170.13;10223722;28;20099;-76
2024/03/14 10:00:52;;;;;;;14.23;12.77;;;;;;;13.68;100.00;101175.63;10233945;28;20057;-77
2024/03/14 10:05:53;;;;;;;14.82;13.20;;;;;;;13.93;100.00;101184.13;10220058;28;20052;-75
2024/03/14 10:10:50;;;;;;;14.53;12.50;;;;;;;13.80;100.00;101174.13;10220039;28;20049;-76
2024/03/14 10:15:49;;;;;;;13.50;12.15;;;;;;;14.01;100.00;101172.28;10223025;28;20046;-76
2024/03/14 10:20:46;;;;;;;13.77;11.70;;;;;;;14.27;100.00;101163.09;10234834;28;20140;-76
2024/03/14 10:25:50;;;;;;;12.75;11.48;;;;;;;14.51;100.00;101162.47;10227816;28;20061;-76
2024/03/14 10:30:57;;;;;;;14.75;10.57;;;;;;;14.73;100.00;101161.38;10224395;28;20079;-77
2024/03/14 10:36:06;;;;;;;12.27;11.10;;;;;;;14.67;100.00;101160.78;10227634;28;20111;-77
2024/03/14 10:41:05;;;;;;;12.45;11.25;;;;;;;14.82;100.00;101153.84;10233876;28;20046;-81
2024/03/14 10:46:08;;;;;;;13.55;11.80;;;;;;;15.40;100.00;101153.19;10223057;28;20163;-75
2024/03/14 10:51:06;;;;;;;;;;;;;;;15.69;100.00;101155.78;10225252;28;20096;-75
2024/03/14 10:56:04;;;;;;;12.65;11.40;;;;;;;15.30;100.00;101152.47;10225657;28;19928;-76
2024/03/14 11:01:01;;;;;;;11.77;10.57;;;;;;;15.10;100.00;101145.84;10233337;28;20104;-79
2024/03/14 11:05:58;;;;;;;12.43;11.07;;;;;;;15.45;100.00;101144.69;10229449;28;20072;-78
2024/03/14 11:10:58;;;;;;;11.15;10.05;;;;;;;15.32;100.00;101152.94;10225202;28;20057;-76
2024/03/14 11:15:58;;;;;;;12.40;10.52;;;;;;;15.01;100.00;101141.56;10219906;28;20167;-77
2024/03/14 11:20:56;;;;;;;11.25;10.25;;;;;;;14.90;100.00;101147.50;10223571;28;20053;-77
2024/03/14 11:25:57;;;;;;;11.15;10.05;;;;;;;14.77;100.00;101137.53;10227016;28;20069;-77
2024/03/14 11:30:55;;;;;;;11.60;10.07;;;;;;;15.05;100.00;101131.47;10231233;28;20049;-77
2024/03/14 11:35:56;;;;;;;12.60;11.25;;;;;;;15.29;100.00;101131.59;10226038;28;20088;-78
2024/03/14 11:40:53;;;;;;;11.57;10.43;;;;;;;15.35;100.00;101130.19;10221191;28;20052;-77
2024/03/14 11:46:00;;;;;;;12.40;11.20;;;;;;;15.42;100.00;101139.88;10229728;28;20132;-76
2024/03/14 11:50:58;;;;;;;11.60;10.43;;;;;;;15.53;100.00;101122.56;10243332;28;20525;-79
2024/03/14 11:55:56;;;;;;;11.77;10.65;;;;;;;15.83;100.00;101124.34;10211925;28;20045;-77
2024/03/14 12:01:06;;;;;;;11.77;10.57;;;;;;;16.24;100.00;101104.00;10220153;28;20152;-78
2024/03/14 12:06:05;;;;;;;11.93;10.70;;;;;;;16.53;100.00;101100.16;10225579;28;20048;-78
2024/03/14 12:11:04;;;;;;;11.90;10.23;;;;;;;16.83;100.00;101091.59;10225067;28;20049;-77
2024/03/14 12:16:02;;;;;;;12.23;11.13;;;;;;;17.20;100.00;101088.66;10225582;28;20370;-77
2024/03/14 12:21:00;;;;;;;12.80;11.50;;;;;;;17.76;100.00;101082.97;10223773;28;20053;-78
2024/03/14 12:26:07;;;;;;;12.52;11.13;;;;;;;16.74;100.00;101097.22;10229337;28;20069;-77
2024/03/14 12:31:04;;;;;;;11.48;10.48;;;;;;;17.59;100.00;101077.78;10227207;28;20640;-77
2024/03/14 12:36:00;;;;;;;17.02;10.32;;;;;;;18.24;100.00;101086.50;10221109;28;20041;-77
2024/03/14 12:40:58;;;;;;;10.55;9.73;;;;;;;18.92;100.00;101073.28;10225425;28;20659;-79
2024/03/14 12:45:56;;;;;;;11.98;10.95;;;;;;;17.63;100.00;101067.63;10230900;28;20052;-78
2024/03/14 12:50:53;;;;;;;12.65;10.82;;;;;;;18.51;100.00;101058.97;10231425;28;20061;-79
2024/03/14 12:55:51;;;;;;;14.45;10.32;;;;;;;19.42;100.00;101043.69;10231338;28;20041;-78
2024/03/14 13:00:48;;;;;;;12.07;11.05;;;;;;;19.23;100.00;101052.09;10225308;28;20084;-77
2024/03/14 13:05:55;;;;;;;10.63;9.73;;;;;;;19.39;100.00;101044.44;10226173;28;20055;-77
2024/03/14 13:11:11;;;;;;;10.40;9.32;;;;;;;18.80;100.00;101054.03;10220234;28;20041;-76
2024/03/14 13:16:17;;;;;;;10.38;9.48;;;;;;;18.47;100.00;101049.78;10223297;28;20037;-77
2024/03/14 13:21:13;;;;;;;9.38;8.65;;;;;;;20.51;100.00;101053.25;10227324;28;20045;-77
2024/03/14 13:26:12;;;;;;;10.07;9.27;;;;;;;20.39;100.00;101043.19;10222695;28;20045;-78
2024/03/14 13:31:08;;;;;;;10.07;9.05;;;;;;;20.98;100.00;101039.94;10219503;28;20774;-77
2024/03/14 13:36:09;;;;;;;9.07;8.23;;;;;;;20.53;100.00;101036.22;10223074;28;20049;-77
2024/03/14 13:41:07;;;;;;;9.07;8.13;;;;;;;20.79;100.00;101018.69;10221384;28;20049;-78
2024/03/14 13:46:03;;;;;;;8.68;7.60;;;;;;;21.88;100.00;101021.25;10220571;28;20048;-78
2024/03/14 13:51:02;;;;;;;9.98;8.48;;;;;;;21.49;100.00;101036.47;10230826;28;20185;-77
2024/03/14 13:56:00;;;;;;;8.65;7.28;;;;;;;21.60;100.00;101029.00;10228998;28;20137;-78
2024/03/14 14:00:59;;;;;;;9.00;8.20;;;;;;;21.60;100.00;101029.00;10235610;28;20052;-78
2024/03/14 14:05:56;;;;;;;8.82;7.93;;;;;;;21.43;100.00;101012.97;10230555;28;20099;-77
2024/03/14 14:10:54;;;;;;;8.30;7.40;;;;;;;21.49;100.00;101010.63;10232429;28;20050;-78
2024/03/14 14:15:52;;;;;;;9.15;8.38;;;;;;;21.52;100.00;101010.66;10238472;28;20127;-77
2024/03/14 14:20:49;;;;;;;10.15;8.80;;;;;;;21.11;100.00;101010.66;10234375;28;20045;-78
2024/03/14 14:25:46;;;;;;;9.07;8.18;;;;;;;19.07;100.00;101003.09;10232487;28;20045;-77
2024/03/14 14:30:42;;;;;;;8.10;7.38;;;;;;;21.58;100.00;100986.88;10228115;28;20060;-77
2024/03/14 14:35:39;;;;;;;10.25;8.55;;;;;;;22.70;100.00;100999.38;10233092;28;20571;-77
2024/03/14 14:40:36;;;;;;;9.27;8.38;;;;;;;20.56;100.00;100991.03;10233225;28;20056;-76
2024/03/14 14:45:33;;;;;;;9.50;7.50;;;;;;;20.56;100.00;100982.72;10225292;28;20053;-77
2024/03/14 14:50:34;;;;;;;9.07;8.27;;;;;;;21.32;100.00;100984.25;10234725;28;20055;-76
2024/03/14 14:55:30;;;;;;;8.93;8.13;;;;;;;20.37;100.00;100970.56;10222656;28;20577;-78
2024/03/14 15:00:27;;;;;;;8.68;7.97;;;;;;;22.26;100.00;100956.63;10229791;28;20045;-78
2024/03/14 15:05:23;;;;;;;9.23;8.38;;;;;;;22.40;100.00;100964.25;10225149;28;20457;-76
2024/03/14 15:10:20;;;;;;;8.88;7.97;;;;;;;22.20;100.00;100951.81;10229764;28;20701;-76
2024/03/14 15:15:17;;;;;;;9.68;8.10;;;;;;;21.80;100.00;100945.25;10223623;28;20053;-79
2024/03/14 15:20:15;;;;;;;8.75;8.00;;;;;;;21.20;100.00;100944.41;10234756;28;20045;-78
2024/03/14 15:25:13;;;;;;;9.15;8.43;;;;;;;19.64;100.00;100944.22;10231533;28;20052;-80
2024/03/14 15:30:09;;;;;;;8.25;7.55;;;;;;;19.33;100.00;100946.13;10232160;28;20891;-79
2024/03/14 15:35:08;;;;;;;9.18;8.27;;;;;;;18.87;100.00;100943.41;10230581;28;20057;-79
2024/03/14 15:40:09;;;;;;;11.23;8.07;;;;;;;18.67;100.00;100943.38;10229383;28;20049;-78
2024/03/14 15:45:08;;;;;;;11.53;8.70;;;;;;;18.14;100.00;100934.84;10220880;28;20176;-78
2024/03/14 15:50:07;;;;;;;9.35;8.23;;;;;;;18.04;100.00;100927.13;10227580;28;20069;-79
2024/03/14 15:55:05;;;;;;;8.73;7.85;;;;;;;17.98;100.00;100940.44;10228241;28;20049;-78
2024/03/14 16:00:02;;;;;;;9.38;8.38;;;;;;;18.32;100.00;100945.50;10223560;28;20045;-74
2024/03/14 16:04:59;;;;;;;9.50;8.63;;;;;;;17.94;100.00;100934.06;10223507;28;20107;-75
2024/03/14 16:09:55;;;;;;;9.77;8.88;;;;;;;17.42;100.00;100940.75;10237064;28;20037;-72
2024/03/14 16:14:52;;;;;;;17.42;8.70;;;;;;;16.89;100.00;100935.50;10223743;28;20049;-73
2024/03/14 16:19:49;;;;;;;9.98;8.45;;;;;;;16.82;100.00;100935.31;10229978;28;20045;-73
2024/03/14 16:24:45;;;;;;;10.32;9.18;;;;;;;16.61;100.00;100936.31;10228152;28;20045;-73
2024/03/14 16:29:42;;;;;;;9.43;8.52;;;;;;;16.41;100.00;100920.81;10230611;28;20190;-75
2024/03/14 16:34:38;;;;;;;10.20;9.25;;;;;;;16.06;100.00;100926.09;10223658;28;20096;-74
2024/03/14 16:39:35;;;;;;;10.10;9.20;;;;;;;16.00;100.00;100922.81;10222794;28;20065;-74
2024/03/14 16:44:32;;;;;;;10.80;9.80;;;;;;;15.88;100.00;100920.88;10230428;28;20172;-73
2024/03/14 16:49:32;;;;;;;10.57;9.57;;;;;;;15.63;100.00;100913.78;10232387;28;20136;-73
2024/03/14 16:54:31;;;;;;;13.23;9.82;;;;;;;15.51;100.00;100920.94;10227711;28;20037;-74
2024/03/14 16:59:28;;;;;;;11.27;9.65;;;;;;;15.41;100.00;100915.91;10222989;28;20054;-75
2024/03/14 17:04:25;;;;;;;11.40;9.68;;;;;;;15.34;100.00;100913.72;10227257;28;20052;-72
2024/03/14 17:09:22;;;;;;;12.05;10.57;;;;;;;15.22;100.00;100910.94;10213566;28;20126;-74
2024/03/14 17:14:18;;;;;;;10.20;9.23;;;;;;;15.08;100.00;100910.50;10214526;28;20056;-74
2024/03/14 17:19:15;;;;;;;13.57;10.00;;;;;;;14.87;100.00;100905.88;10229345;28;20041;-74
2024/03/14 17:24:14;;;;;;;10.35;9.25;;;;;;;14.76;100.00;100910.25;10227825;28;20905;-74
2024/03/14 17:29:11;;;;;;;11.18;9.93;;;;;;;14.70;100.00;100906.09;10223016;28;20077;-79
2024/03/14 17:34:08;;;;;;;12.88;10.73;;;;;;;14.52;100.00;100905.44;10218792;28;20041;-80
2024/03/14 17:39:05;;;;;;;12.10;9.48;;;;;;;14.47;100.00;100909.22;10215399;28;20045;-77
2024/03/14 17:44:02;;;;;;;11.30;10.30;;;;;;;14.26;100.00;100914.75;10221674;28;20695;-77
2024/03/14 17:48:58;;;;;;;11.50;10.10;;;;;;;14.20;100.00;100909.81;10209601;28;20068;-77
2024/03/14 17:53:55;;;;;;;11.23;10.15;;;;;;;14.12;100.00;100910.69;10223535;28;20060;-77
2024/03/14 17:58:51;;;;;;;11.10;9.43;;;;;;;13.94;100.00;100908.09;10228235;28;20042;-77
2024/03/14 18:03:49;;;;;;;10.18;9.18;;;;;;;13.72;100.00;100900.19;10232453;28;20069;-77
2024/03/14 18:08:46;;;;;;;12.57;10.32;;;;;;;13.58;100.00;100906.75;10233319;28;20060;-77
2024/03/14 18:13:43;;;;;;;13.48;10.57;;;;;;;13.42;100.00;100900.22;10230738;28;20111;-77
2024/03/14 18:18:39;;;;;;;12.18;10.25;;;;;;;13.38;100.00;100896.53;10227548;28;20053;-77
2024/03/14 18:23:37;;;;;;;10.95;9.20;;;;;;;13.47;100.00;100894.53;10228120;28;20049;-76
2024/03/14 18:28:34;;;;;;;11.07;9.85;;;;;;;13.39;100.00;100898.13;10221446;28;20140;-78
2024/03/14 18:33:30;;;;;;;12.95;9.60;;;;;;;13.41;100.00;100898.59;10218063;28;20052;-77
2024/03/14 18:38:28;;;;;;;10.80;9.80;;;;;;;13.29;100.00;100893.81;10226139;28;20042;-78
2024/03/14 18:43:26;;;;;;;11.55;9.27;;;;;;;13.21;100.00;100891.91;10234305;28;20056;-77
2024/03/14 18:48:23;;;;;;;13.05;9.93;;;;;;;13.19;100.00;100877.72;10232751;28;20049;-78
2024/03/14 18:53:20;;;;;;;11.35;10.15;;;;;;;13.17;100.00;100880.78;10235558;28;20045;-77
2024/03/14 18:58:27;;;;;;;13.27;9.88;;;;;;;13.12;100.00;100886.47;10235384;28;20549;-77
2024/03/14 19:03:24;;;;;;;11.70;10.50;;;;;;;13.03;100.00;100891.19;10235513;28;20076;-77
2024/03/14 19:08:21;;;;;;;12.05;10.88;;;;;;;12.90;100.00;100886.72;10233852;28;20513;-77
2024/03/14 19:13:17;;;;;;;11.93;10.82;;;;;;;12.93;100.00;100895.13;10233858;28;20050;-78
2024/03/14 19:18:14;;;;;;;12.77;11.50;;;;;;;12.80;100.00;100888.69;10238249;28;20049;-77
2024/03/14 19:23:11;;;;;;;12.27;11.00;;;;;;;12.72;100.00;100884.06;10230861;28;20045;-77
2024/03/14 19:28:12;;;;;;;12.13;10.98;;;;;;;12.68;100.00;100880.34;10237144;28;20049;-77
2024/03/14 19:33:11;;;;;;;11.75;10.48;;;;;;;12.68;100.00;100885.84;10237045;28;20046;-77
2024/03/14 19:38:09;;;;;;;12.38;10.95;;;;;;;12.55;100.00;100881.34;10231578;28;20076;-77
2024/03/14 19:43:06;;;;;;;12.77;10.45;;;;;;;12.48;100.00;100881.06;10232979;28;20045;-77
2024/03/14 19:48:02;;;;;;;12.38;11.18;;;;;;;12.40;100.00;100869.78;10225419;28;20136;-77
2024/03/14 19:53:01;;;;;;;13.43;11.98;;;;;;;12.30;100.00;100863.81;10238191;28;20056;-78
2024/03/14 19:57:57;;;;;;;11.75;10.55;;;;;;;12.30;100.00;100867.41;10234923;28;20067;-77
2024/03/14 20:02:55;;;;;;;12.63;11.32;;;;;;;12.17;100.00;100860.16;10233022;28;20051;-77
2024/03/14 20:07:53;;;;;;;15.85;12.80;;;;;;;12.17;100.00;100860.16;10233323;28;20045;-76
2024/03/14 20:12:50;;;;;;;17.98;13.40;;;;;;;12.09;100.00;100858.22;10226934;28;20065;-77
2024/03/14 20:17:50;;;;;;;15.60;12.63;;;;;;;11.94;100.00;100852.13;10238046;28;20053;-77
2024/03/14 20:22:47;;;;;;;15.65;13.35;;;;;;;11.92;100.00;100848.88;10223346;28;20729;-77
2024/03/14 20:27:43;;;;;;;15.38;12.43;;;;;;;11.82;100.00;100849.19;10234041;28;20054;-77
2024/03/14 20:32:42;;;;;;;14.50;12.90;;;;;;;11.77;100.00;100843.88;10234069;28;20132;-77
2024/03/14 20:37:38;;;;;;;14.55;12.38;;;;;;;11.65;100.00;100838.22;10233881;28;20052;-77
2024/03/14 20:42:35;;;;;;;12.98;11.68;;;;;;;11.65;100.00;100832.75;10245913;28;20541;-77
2024/03/14 20:47:32;;;;;;;14.15;12.75;;;;;;;11.65;100.00;100827.28;10231540;28;20473;-77
2024/03/14 20:52:29;;;;;;;14.18;12.80;;;;;;;11.68;100.00;100829.38;10228312;28;20075;-76
2024/03/14 20:57:29;;;;;;;14.52;12.15;;;;;;;11.62;100.00;100834.19;10233112;28;20052;-77
2024/03/14 21:02:27;;;;;;;13.20;11.68;;;;;;;11.59;100.00;100830.19;10241487;28;20045;-77
2024/03/14 21:07:23;;;;;;;15.50;13.85;;;;;;;11.51;100.00;100817.31;10221650;28;20041;-76
2024/03/14 21:12:22;;;;;;;15.18;13.60;;;;;;;11.56;100.00;100830.84;10232535;28;20574;-77
2024/03/14 21:17:19;;;;;;;15.70;13.82;;;;;;;11.51;100.00;100811.00;10229204;28;20132;-77
2024/03/14 21:22:16;;;;;;;15.43;13.43;;;;;;;11.47;100.00;100826.47;10227122;28;20041;-77
2024/03/14 21:27:12;;;;;;;15.57;14.05;;;;;;;11.45;100.00;100824.06;10224018;28;20136;-76
2024/03/14 21:32:09;;;;;;;19.25;14.10;;;;;;;11.38;100.00;100818.25;10224984;28;20047;-78
2024/03/14 21:37:06;;;;;;;19.98;14.45;;;;;;;11.29;100.00;100817.44;10231472;28;20053;-77
2024/03/14 21:42:06;;;;;;;20.33;14.23;;;;;;;11.16;100.00;100828.22;10226047;28;20064;-77
2024/03/14 21:47:03;;;;;;;16.40;14.50;;;;;;;10.96;100.00;100820.59;10230290;28;20055;-76
2024/03/14 21:52:01;;;;;;;15.70;13.57;;;;;;;10.83;100.00;100824.25;10226371;28;20095;-77
2024/03/14 21:56:57;;;;;;;15.70;14.10;;;;;;;10.72;100.00;100835.47;10226853;28;20511;-77
2024/03/14 22:01:54;;;;;;;15.77;14.13;;;;;;;10.56;100.00;100820.63;10214387;28;20371;-81
2024/03/14 22:06:51;;;;;;;16.67;14.75;;;;;;;10.50;100.00;100821.88;10230085;28;20051;-77
2024/03/14 22:11:47;;;;;;;14.38;12.95;;;;;;;10.45;100.00;100825.53;10226699;28;20580;-75